sensor_id;sensor_type;location;lat;lon;timestamp;pressure;altitude;pressure_sealevel;temperature;humidity
60479;BME280;46321;48.398;11.754;2023-08-01T00:01:16;95785.47;;;18.62;75.37
60479;BME280;46321;48.398;11.754;2023-08-01T00:03:41;95791.91;;;18.61;75.02
60479;BME280;46321;48.398;11.754;2023-08-01T00:06:07;95787.09;;;18.63;74.47
60479;BME280;46321;48.398;11.754;2023-08-01T00:08:32;95779.97;;;18.51;74.35
60479;BME280;46321;48.398;11.754;2023-08-01T00:10:57;95764.44;;;18.53;74.79
60479;BME280;46321;48.398;11.754;2023-08-01T00:13:22;95763.88;;;18.51;75.33
60479;BME280;46321;48.398;11.754;2023-08-01T00:15:47;95758.06;;;18.54;74.81
60479;BME280;46321;48.398;11.754;2023-08-01T00:18:12;95761.84;;;18.59;74.17
60479;BME280;46321;48.398;11.754;2023-08-01T00:20:38;95757.06;;;18.61;74.17
60479;BME280;46321;48.398;11.754;2023-08-01T00:23:04;95753.56;;;18.60;74.82
60479;BME280;46321;48.398;11.754;2023-08-01T00:25:29;95747.91;;;18.57;75.48
60479;BME280;46321;48.398;11.754;2023-08-01T00:27:55;95749.50;;;18.58;75.81
60479;BME280;46321;48.398;11.754;2023-08-01T00:30:20;95750.56;;;18.57;75.82
60479;BME280;46321;48.398;11.754;2023-08-01T00:32:45;95746.50;;;18.54;76.28
60479;BME280;46321;48.398;11.754;2023-08-01T00:35:10;95738.47;;;18.54;76.83
60479;BME280;46321;48.398;11.754;2023-08-01T00:37:36;95739.03;;;18.56;77.13
60479;BME280;46321;48.398;11.754;2023-08-01T00:40:02;95726.47;;;18.57;77.14
60479;BME280;46321;48.398;11.754;2023-08-01T00:42:27;95718.66;;;18.55;77.61
60479;BME280;46321;48.398;11.754;2023-08-01T00:44:52;95713.53;;;18.53;78.07
60479;BME280;46321;48.398;11.754;2023-08-01T00:47:19;95705.41;;;18.48;78.41
60479;BME280;46321;48.398;11.754;2023-08-01T00:49:44;95701.22;;;18.52;77.62
60479;BME280;46321;48.398;11.754;2023-08-01T00:52:09;95701.78;;;18.54;77.69
60479;BME280;46321;48.398;11.754;2023-08-01T00:54:35;95695.28;;;18.50;78.54
60479;BME280;46321;48.398;11.754;2023-08-01T00:57:01;95692.09;;;18.53;78.24
60479;BME280;46321;48.398;11.754;2023-08-01T00:59:27;95688.03;;;18.51;78.57
60479;BME280;46321;48.398;11.754;2023-08-01T01:01:52;95693.97;;;18.53;78.22
60479;BME280;46321;48.398;11.754;2023-08-01T01:04:17;95695.53;;;18.49;78.50
60479;BME280;46321;48.398;11.754;2023-08-01T01:06:47;95685.31;;;18.46;78.73
60479;BME280;46321;48.398;11.754;2023-08-01T01:09:15;95685.63;;;18.49;78.44
60479;BME280;46321;48.398;11.754;2023-08-01T01:11:40;95676.75;;;18.49;78.51
60479;BME280;46321;48.398;11.754;2023-08-01T01:14:05;95670.38;;;18.50;78.26
60479;BME280;46321;48.398;11.754;2023-08-01T01:16:30;95667.84;;;18.43;79.19
60479;BME280;46321;48.398;11.754;2023-08-01T01:18:56;95667.28;;;18.41;79.73
60479;BME280;46321;48.398;11.754;2023-08-01T01:21:21;95665.19;;;18.43;79.27
60479;BME280;46321;48.398;11.754;2023-08-01T01:23:46;95651.78;;;18.43;79.23
60479;BME280;46321;48.398;11.754;2023-08-01T01:26:12;95658.19;;;18.42;79.30
60479;BME280;46321;48.398;11.754;2023-08-01T01:28:38;95652.34;;;18.45;78.11
60479;BME280;46321;48.398;11.754;2023-08-01T01:31:04;95653.38;;;18.44;77.32
60479;BME280;46321;48.398;11.754;2023-08-01T01:33:30;95650.16;;;18.42;77.38
60479;BME280;46321;48.398;11.754;2023-08-01T01:35:55;95645.88;;;18.41;77.87
60479;BME280;46321;48.398;11.754;2023-08-01T01:38:20;95643.84;;;18.31;77.22
60479;BME280;46321;48.398;11.754;2023-08-01T01:40:45;95637.44;;;18.32;77.21
60479;BME280;46321;48.398;11.754;2023-08-01T01:43:10;95640.91;;;18.33;77.89
60479;BME280;46321;48.398;11.754;2023-08-01T01:45:35;95637.66;;;18.30;78.50
60479;BME280;46321;48.398;11.754;2023-08-01T01:48:01;95640.91;;;18.33;78.38
60479;BME280;46321;48.398;11.754;2023-08-01T01:50:26;95645.94;;;18.29;78.90
60479;BME280;46321;48.398;11.754;2023-08-01T01:52:51;95642.44;;;18.28;78.03
60479;BME280;46321;48.398;11.754;2023-08-01T01:55:16;95637.09;;;18.28;78.50
60479;BME280;46321;48.398;11.754;2023-08-01T01:57:42;95623.88;;;18.22;79.00
60479;BME280;46321;48.398;11.754;2023-08-01T02:00:07;95620.41;;;18.21;79.24
60479;BME280;46321;48.398;11.754;2023-08-01T02:02:35;95622.00;;;18.22;78.55
60479;BME280;46321;48.398;11.754;2023-08-01T02:05:00;95617.38;;;18.17;78.25
60479;BME280;46321;48.398;11.754;2023-08-01T02:07:26;95615.97;;;18.15;78.15
60479;BME280;46321;48.398;11.754;2023-08-01T02:09:51;95612.25;;;18.16;78.03
60479;BME280;46321;48.398;11.754;2023-08-01T02:12:16;95611.19;;;18.17;78.07
60479;BME280;46321;48.398;11.754;2023-08-01T02:14:41;95602.38;;;18.16;78.32
60479;BME280;46321;48.398;11.754;2023-08-01T02:17:06;95601.81;;;18.14;78.51
60479;BME280;46321;48.398;11.754;2023-08-01T02:19:32;95586.78;;;18.13;78.52
60479;BME280;46321;48.398;11.754;2023-08-01T02:21:57;95581.69;;;18.12;78.71
60479;BME280;46321;48.398;11.754;2023-08-01T02:24:23;95579.22;;;18.10;78.78
60479;BME280;46321;48.398;11.754;2023-08-01T02:26:49;95586.69;;;18.08;79.29
60479;BME280;46321;48.398;11.754;2023-08-01T02:29:14;95582.16;;;18.08;78.81
60479;BME280;46321;48.398;11.754;2023-08-01T02:31:39;95577.94;;;18.13;78.28
60479;BME280;46321;48.398;11.754;2023-08-01T02:34:04;95580.88;;;18.11;77.73
60479;BME280;46321;48.398;11.754;2023-08-01T02:36:29;95580.88;;;18.11;77.66
60479;BME280;46321;48.398;11.754;2023-08-01T02:38:54;95568.53;;;18.10;77.59
60479;BME280;46321;48.398;11.754;2023-08-01T02:41:20;95565.78;;;18.05;78.42
60479;BME280;46321;48.398;11.754;2023-08-01T02:43:45;95562.28;;;18.04;78.36
60479;BME280;46321;48.398;11.754;2023-08-01T02:46:10;95565.78;;;18.05;78.04
60479;BME280;46321;48.398;11.754;2023-08-01T02:48:36;95559.06;;;18.02;78.33
60479;BME280;46321;48.398;11.754;2023-08-01T02:51:01;95546.72;;;18.01;78.56
60479;BME280;46321;48.398;11.754;2023-08-01T02:53:27;95558.25;;;18.02;78.66
60479;BME280;46321;48.398;11.754;2023-08-01T02:55:52;95558.00;;;18.03;78.19
60479;BME280;46321;48.398;11.754;2023-08-01T02:58:17;95550.47;;;18.00;78.76
60479;BME280;46321;48.398;11.754;2023-08-01T03:00:42;95558.50;;;18.00;78.88
60479;BME280;46321;48.398;11.754;2023-08-01T03:03:08;95556.38;;;18.02;78.33
60479;BME280;46321;48.398;11.754;2023-08-01T03:05:35;95561.47;;;18.04;78.27
60479;BME280;46321;48.398;11.754;2023-08-01T03:08:00;95558.75;;;17.99;77.47
60479;BME280;46321;48.398;11.754;2023-08-01T03:10:25;95579.09;;;18.00;76.90
60479;BME280;46321;48.398;11.754;2023-08-01T03:12:51;95567.56;;;17.99;75.96
60479;BME280;46321;48.398;11.754;2023-08-01T03:15:16;95578.06;;;18.01;75.71
60479;BME280;46321;48.398;11.754;2023-08-01T03:17:41;95585.75;;;17.97;75.50
60479;BME280;46321;48.398;11.754;2023-08-01T03:20:07;95589.16;;;17.92;76.25
60479;BME280;46321;48.398;11.754;2023-08-01T03:22:35;95574.25;;;17.96;76.45
60479;BME280;46321;48.398;11.754;2023-08-01T03:25:01;95591.59;;;17.94;76.48
60479;BME280;46321;48.398;11.754;2023-08-01T03:27:31;95606.84;;;17.93;76.67
60479;BME280;46321;48.398;11.754;2023-08-01T03:29:57;95596.56;;;17.85;77.77
60479;BME280;46321;48.398;11.754;2023-08-01T03:32:22;95603.44;;;17.81;76.23
60479;BME280;46321;48.398;11.754;2023-08-01T03:34:47;95599.13;;;17.80;77.05
60479;BME280;46321;48.398;11.754;2023-08-01T03:37:12;95593.06;;;17.84;76.67
60479;BME280;46321;48.398;11.754;2023-08-01T03:39:38;95597.94;;;17.88;75.59
60479;BME280;46321;48.398;11.754;2023-08-01T03:42:05;95587.47;;;17.86;75.89
60479;BME280;46321;48.398;11.754;2023-08-01T03:44:30;95584.56;;;17.88;75.81
60479;BME280;46321;48.398;11.754;2023-08-01T03:46:56;95589.81;;;17.82;76.24
60479;BME280;46321;48.398;11.754;2023-08-01T03:49:21;95597.50;;;17.79;75.36
60479;BME280;46321;48.398;11.754;2023-08-01T03:51:47;95599.63;;;17.77;75.99
60479;BME280;46321;48.398;11.754;2023-08-01T03:54:12;95600.44;;;17.77;76.00
60479;BME280;46321;48.398;11.754;2023-08-01T03:56:37;95602.06;;;17.78;75.80
60479;BME280;46321;48.398;11.754;2023-08-01T03:59:04;95614.63;;;17.78;76.03
60479;BME280;46321;48.398;11.754;2023-08-01T04:01:30;95607.25;;;17.68;76.82
60479;BME280;46321;48.398;11.754;2023-08-01T04:03:55;95604.09;;;17.71;76.63
60479;BME280;46321;48.398;11.754;2023-08-01T04:06:20;95603.84;;;17.72;77.26
60479;BME280;46321;48.398;11.754;2023-08-01T04:08:45;95607.50;;;17.66;77.51
60479;BME280;46321;48.398;11.754;2023-08-01T04:11:10;95605.22;;;17.58;77.83
60479;BME280;46321;48.398;11.754;2023-08-01T04:13:36;95608.47;;;17.60;77.96
60479;BME280;46321;48.398;11.754;2023-08-01T04:16:01;95600.19;;;17.61;77.07
60479;BME280;46321;48.398;11.754;2023-08-01T04:18:26;95606.25;;;17.57;77.62
60479;BME280;46321;48.398;11.754;2023-08-01T04:20:51;95595.81;;;17.55;78.22
60479;BME280;46321;48.398;11.754;2023-08-01T04:23:17;95596.06;;;17.54;78.41
60479;BME280;46321;48.398;11.754;2023-08-01T04:25:42;95598.88;;;17.47;78.85
60479;BME280;46321;48.398;11.754;2023-08-01T04:28:07;95595.72;;;17.50;78.43
60479;BME280;46321;48.398;11.754;2023-08-01T04:30:32;95597.81;;;17.48;78.82
60479;BME280;46321;48.398;11.754;2023-08-01T04:32:58;95601.31;;;17.48;78.69
60479;BME280;46321;48.398;11.754;2023-08-01T04:35:23;95602.13;;;17.49;79.96
60479;BME280;46321;48.398;11.754;2023-08-01T04:37:48;95599.69;;;17.47;79.96
60479;BME280;46321;48.398;11.754;2023-08-01T04:40:13;95610.88;;;17.44;80.10
60479;BME280;46321;48.398;11.754;2023-08-01T04:42:39;95602.75;;;17.39;80.19
60479;BME280;46321;48.398;11.754;2023-08-01T04:45:04;95592.06;;;17.39;80.54
60479;BME280;46321;48.398;11.754;2023-08-01T04:47:31;95596.03;;;17.36;80.78
60479;BME280;46321;48.398;11.754;2023-08-01T04:49:56;95590.66;;;17.36;81.20
60479;BME280;46321;48.398;11.754;2023-08-01T04:52:21;95579.59;;;17.45;80.38
60479;BME280;46321;48.398;11.754;2023-08-01T04:54:47;95580.88;;;17.42;80.30
60479;BME280;46321;48.398;11.754;2023-08-01T04:57:12;95574.41;;;17.38;81.11
60479;BME280;46321;48.398;11.754;2023-08-01T04:59:37;95571.16;;;17.36;81.38
60479;BME280;46321;48.398;11.754;2023-08-01T05:02:02;95562.41;;;17.41;81.50
60479;BME280;46321;48.398;11.754;2023-08-01T05:04:27;95568.78;;;17.22;82.00
60479;BME280;46321;48.398;11.754;2023-08-01T05:06:53;95554.59;;;17.22;82.29
60479;BME280;46321;48.398;11.754;2023-08-01T05:09:18;95549.56;;;17.25;82.46
60479;BME280;46321;48.398;11.754;2023-08-01T05:11:43;95544.00;;;17.27;82.57
60479;BME280;46321;48.398;11.754;2023-08-01T05:14:08;95544.28;;;17.13;84.10
60479;BME280;46321;48.398;11.754;2023-08-01T05:16:33;95545.84;;;17.26;83.08
60479;BME280;46321;48.398;11.754;2023-08-01T05:18:58;95547.63;;;17.21;83.74
60479;BME280;46321;48.398;11.754;2023-08-01T05:21:24;95534.34;;;17.26;83.94
60479;BME280;46321;48.398;11.754;2023-08-01T05:23:50;95535.88;;;17.22;84.40
60479;BME280;46321;48.398;11.754;2023-08-01T05:26:15;95542.94;;;17.28;83.98
60479;BME280;46321;48.398;11.754;2023-08-01T05:28:41;95538.16;;;17.30;83.73
60479;BME280;46321;48.398;11.754;2023-08-01T05:31:06;95537.34;;;17.30;83.79
60479;BME280;46321;48.398;11.754;2023-08-01T05:33:31;95542.22;;;17.33;84.01
60479;BME280;46321;48.398;11.754;2023-08-01T05:35:56;95532.81;;;17.30;84.07
60479;BME280;46321;48.398;11.754;2023-08-01T05:38:21;95531.41;;;17.27;84.19
60479;BME280;46321;48.398;11.754;2023-08-01T05:40:47;95530.63;;;17.27;84.24
60479;BME280;46321;48.398;11.754;2023-08-01T05:43:12;95545.34;;;17.30;84.22
60479;BME280;46321;48.398;11.754;2023-08-01T05:45:37;95541.91;;;17.29;84.10
60479;BME280;46321;48.398;11.754;2023-08-01T05:48:03;95551.63;;;17.35;83.83
60479;BME280;46321;48.398;11.754;2023-08-01T05:50:28;95544.41;;;17.36;84.33
60479;BME280;46321;48.398;11.754;2023-08-01T05:52:53;95544.72;;;17.39;84.24
60479;BME280;46321;48.398;11.754;2023-08-01T05:55:18;95534.28;;;17.38;84.02
60479;BME280;46321;48.398;11.754;2023-08-01T05:57:43;95540.34;;;17.33;85.14
60479;BME280;46321;48.398;11.754;2023-08-01T06:00:09;95529.25;;;17.42;84.42
60479;BME280;46321;48.398;11.754;2023-08-01T06:02:34;95533.63;;;17.48;84.76
60479;BME280;46321;48.398;11.754;2023-08-01T06:04:59;95524.31;;;17.50;84.67
60479;BME280;46321;48.398;11.754;2023-08-01T06:07:24;95513.59;;;17.50;84.56
60479;BME280;46321;48.398;11.754;2023-08-01T06:09:50;95505.00;;;17.48;85.13
60479;BME280;46321;48.398;11.754;2023-08-01T06:12:18;95509.63;;;17.53;84.79
60479;BME280;46321;48.398;11.754;2023-08-01T06:14:43;95497.94;;;17.59;84.89
60479;BME280;46321;48.398;11.754;2023-08-01T06:17:09;95493.41;;;17.60;84.74
60479;BME280;46321;48.398;11.754;2023-08-01T06:19:34;95475.34;;;17.67;84.59
60479;BME280;46321;48.398;11.754;2023-08-01T06:21:59;95470.22;;;17.66;84.43
60479;BME280;46321;48.398;11.754;2023-08-01T06:24:25;95455.22;;;17.65;85.02
60479;BME280;46321;48.398;11.754;2023-08-01T06:26:50;95456.53;;;17.62;84.67
60479;BME280;46321;48.398;11.754;2023-08-01T06:29:15;95443.97;;;17.62;83.78
60479;BME280;46321;48.398;11.754;2023-08-01T06:31:40;95439.34;;;17.58;83.83
60479;BME280;46321;48.398;11.754;2023-08-01T06:34:06;95431.75;;;17.49;84.34
60479;BME280;46321;48.398;11.754;2023-08-01T06:36:31;95439.34;;;17.58;83.81
60479;BME280;46321;48.398;11.754;2023-08-01T06:38:57;95435.94;;;17.62;83.08
60479;BME280;46321;48.398;11.754;2023-08-01T06:41:22;95443.78;;;17.69;83.01
60479;BME280;46321;48.398;11.754;2023-08-01T06:43:47;95458.03;;;17.75;83.20
60479;BME280;46321;48.398;11.754;2023-08-01T06:46:13;95464.47;;;17.74;83.97
60479;BME280;46321;48.398;11.754;2023-08-01T06:48:38;95459.91;;;17.74;84.56
60479;BME280;46321;48.398;11.754;2023-08-01T06:51:03;95458.59;;;17.77;84.84
60479;BME280;46321;48.398;11.754;2023-08-01T06:53:28;95449.28;;;17.80;85.02
60479;BME280;46321;48.398;11.754;2023-08-01T06:55:53;95436.44;;;17.82;84.44
60479;BME280;46321;48.398;11.754;2023-08-01T06:58:18;95443.75;;;17.87;83.37
60479;BME280;46321;48.398;11.754;2023-08-01T07:00:44;95437.91;;;17.90;83.24
60479;BME280;46321;48.398;11.754;2023-08-01T07:03:09;95440.59;;;17.90;82.95
60479;BME280;46321;48.398;11.754;2023-08-01T07:05:34;95441.81;;;17.82;81.56
60479;BME280;46321;48.398;11.754;2023-08-01T07:07:59;95426.69;;;17.93;81.11
60479;BME280;46321;48.398;11.754;2023-08-01T07:10:24;95421.78;;;17.84;81.47
60479;BME280;46321;48.398;11.754;2023-08-01T07:12:50;95418.22;;;18.01;81.82
60479;BME280;46321;48.398;11.754;2023-08-01T07:15:15;95417.72;;;18.04;80.65
60479;BME280;46321;48.398;11.754;2023-08-01T07:17:40;95405.41;;;18.03;79.39
60479;BME280;46321;48.398;11.754;2023-08-01T07:20:05;95403.34;;;18.11;78.62
60479;BME280;46321;48.398;11.754;2023-08-01T07:22:30;95410.63;;;18.15;78.03
60479;BME280;46321;48.398;11.754;2023-08-01T07:24:56;95413.94;;;18.23;77.87
60479;BME280;46321;48.398;11.754;2023-08-01T07:27:21;95423.91;;;18.27;77.29
60479;BME280;46321;48.398;11.754;2023-08-01T07:29:46;95415.69;;;18.34;77.39
60479;BME280;46321;48.398;11.754;2023-08-01T07:32:11;95419.41;;;18.33;78.15
60479;BME280;46321;48.398;11.754;2023-08-01T07:34:37;95418.09;;;18.36;77.19
60479;BME280;46321;48.398;11.754;2023-08-01T07:37:02;95414.41;;;18.42;77.16
60479;BME280;46321;48.398;11.754;2023-08-01T07:39:27;95402.31;;;18.39;76.27
60479;BME280;46321;48.398;11.754;2023-08-01T07:41:52;95414.41;;;18.42;76.44
60479;BME280;46321;48.398;11.754;2023-08-01T07:44:17;95408.84;;;18.49;75.09
60479;BME280;46321;48.398;11.754;2023-08-01T07:46:42;95406.53;;;18.58;74.84
60479;BME280;46321;48.398;11.754;2023-08-01T07:49:08;95409.25;;;18.63;74.66
60479;BME280;46321;48.398;11.754;2023-08-01T07:51:33;95426.19;;;18.69;74.82
60479;BME280;46321;48.398;11.754;2023-08-01T07:53:59;95423.81;;;18.72;74.84
60479;BME280;46321;48.398;11.754;2023-08-01T07:56:24;95424.13;;;18.76;74.19
60479;BME280;46321;48.398;11.754;2023-08-01T07:58:49;95418.06;;;18.86;73.45
60479;BME280;46321;48.398;11.754;2023-08-01T08:01:15;95410.59;;;18.93;72.97
60479;BME280;46321;48.398;11.754;2023-08-01T08:03:40;95424.31;;;18.97;72.76
60479;BME280;46321;48.398;11.754;2023-08-01T08:06:05;95423.34;;;19.14;72.42
60479;BME280;46321;48.398;11.754;2023-08-01T08:08:31;95422.69;;;19.29;73.14
60479;BME280;46321;48.398;11.754;2023-08-01T08:10:58;95409.03;;;19.36;71.93
60479;BME280;46321;48.398;11.754;2023-08-01T08:13:23;95408.28;;;19.40;71.43
60479;BME280;46321;48.398;11.754;2023-08-01T08:15:50;95399.72;;;19.43;69.47
60479;BME280;46321;48.398;11.754;2023-08-01T08:18:15;95389.31;;;19.52;68.99
60479;BME280;46321;48.398;11.754;2023-08-01T08:20:42;95389.84;;;19.54;68.14
60479;BME280;46321;48.398;11.754;2023-08-01T08:23:08;95405.72;;;19.61;68.46
60479;BME280;46321;48.398;11.754;2023-08-01T08:25:33;95426.69;;;19.64;67.74
60479;BME280;46321;48.398;11.754;2023-08-01T08:27:58;95422.41;;;19.68;66.44
60479;BME280;46321;48.398;11.754;2023-08-01T08:30:23;95427.78;;;19.74;66.76
60479;BME280;46321;48.398;11.754;2023-08-01T08:32:49;95419.22;;;19.77;66.10
60479;BME280;46321;48.398;11.754;2023-08-01T08:35:15;95419.22;;;19.77;66.33
60479;BME280;46321;48.398;11.754;2023-08-01T08:37:40;95420.03;;;19.77;66.20
60479;BME280;46321;48.398;11.754;2023-08-01T08:40:05;95429.69;;;19.73;65.51
60479;BME280;46321;48.398;11.754;2023-08-01T08:42:33;95434.00;;;19.79;65.09
60479;BME280;46321;48.398;11.754;2023-08-01T08:44:58;95444.47;;;19.81;66.93
60479;BME280;46321;48.398;11.754;2023-08-01T08:47:26;95450.94;;;19.85;67.38
60479;BME280;46321;48.398;11.754;2023-08-01T08:49:52;95455.25;;;19.86;65.79
60479;BME280;46321;48.398;11.754;2023-08-01T08:52:19;95458.47;;;19.88;65.12
60479;BME280;46321;48.398;11.754;2023-08-01T08:54:45;95454.69;;;19.84;63.99
60479;BME280;46321;48.398;11.754;2023-08-01T08:57:11;95453.38;;;19.92;64.92
60479;BME280;46321;48.398;11.754;2023-08-01T08:59:37;95449.38;;;19.95;64.11
60479;BME280;46321;48.398;11.754;2023-08-01T09:02:03;95456.91;;;20.03;64.27
60479;BME280;46321;48.398;11.754;2023-08-01T09:04:29;95465.53;;;20.05;64.47
60479;BME280;46321;48.398;11.754;2023-08-01T09:06:55;95464.97;;;20.03;62.48
60479;BME280;46321;48.398;11.754;2023-08-01T09:09:23;95458.25;;;19.95;62.59
60479;BME280;46321;48.398;11.754;2023-08-01T09:11:51;95463.31;;;19.91;62.55
60479;BME280;46321;48.398;11.754;2023-08-01T09:14:17;95465.53;;;20.00;62.80
60479;BME280;46321;48.398;11.754;2023-08-01T09:16:43;95468.72;;;19.97;62.23
60479;BME280;46321;48.398;11.754;2023-08-01T09:19:09;95463.88;;;19.99;62.39
60479;BME280;46321;48.398;11.754;2023-08-01T09:21:35;95469.81;;;20.01;61.77
60479;BME280;46321;48.398;11.754;2023-08-01T09:24:10;95471.16;;;20.03;62.15
60479;BME280;46321;48.398;11.754;2023-08-01T09:26:37;95472.06;;;20.14;62.07
60479;BME280;46321;48.398;11.754;2023-08-01T09:29:02;95468.59;;;20.30;62.33
60479;BME280;46321;48.398;11.754;2023-08-01T09:31:37;95474.59;;;20.47;62.60
60479;BME280;46321;48.398;11.754;2023-08-01T09:34:04;95470.03;;;20.53;61.25
60479;BME280;46321;48.398;11.754;2023-08-01T09:36:32;95471.94;;;20.58;61.96
60479;BME280;46321;48.398;11.754;2023-08-01T09:39:01;95468.19;;;20.64;60.81
60479;BME280;46321;48.398;11.754;2023-08-01T09:41:28;95472.25;;;20.77;60.08
60479;BME280;46321;48.398;11.754;2023-08-01T09:43:53;95473.56;;;20.75;60.78
60479;BME280;46321;48.398;11.754;2023-08-01T09:46:18;95482.19;;;20.71;60.54
60479;BME280;46321;48.398;11.754;2023-08-01T09:48:43;95478.13;;;20.64;60.45
60479;BME280;46321;48.398;11.754;2023-08-01T09:51:10;95480.81;;;20.64;60.02
60479;BME280;46321;48.398;11.754;2023-08-01T09:53:36;95478.94;;;20.64;60.81
60479;BME280;46321;48.398;11.754;2023-08-01T09:56:01;95494.00;;;20.70;60.24
60479;BME280;46321;48.398;11.754;2023-08-01T09:58:29;95479.19;;;20.57;60.04
60479;BME280;46321;48.398;11.754;2023-08-01T10:00:56;95479.50;;;20.71;60.08
60479;BME280;46321;48.398;11.754;2023-08-01T10:03:21;95468.22;;;20.90;59.85
60479;BME280;46321;48.398;11.754;2023-08-01T10:05:47;95464.47;;;20.81;58.89
60479;BME280;46321;48.398;11.754;2023-08-01T10:08:12;95460.97;;;20.91;59.25
60479;BME280;46321;48.398;11.754;2023-08-01T10:10:37;95460.16;;;20.90;58.81
60479;BME280;46321;48.398;11.754;2023-08-01T10:13:03;95456.44;;;21.02;59.58
60479;BME280;46321;48.398;11.754;2023-08-01T10:15:28;95455.31;;;20.92;58.59
60479;BME280;46321;48.398;11.754;2023-08-01T10:17:53;95448.06;;;20.82;58.70
60479;BME280;46321;48.398;11.754;2023-08-01T10:20:19;95466.31;;;20.70;58.37
60479;BME280;46321;48.398;11.754;2023-08-01T10:22:46;95465.19;;;20.45;58.05
60479;BME280;46321;48.398;11.754;2023-08-01T10:25:13;95465.72;;;20.42;58.29
60479;BME280;46321;48.398;11.754;2023-08-01T10:27:39;95477.50;;;20.35;60.37
60479;BME280;46321;48.398;11.754;2023-08-01T10:30:06;95504.28;;;20.14;63.35
60479;BME280;46321;48.398;11.754;2023-08-01T10:32:33;95519.69;;;19.86;66.33
60479;BME280;46321;48.398;11.754;2023-08-01T10:34:58;95528.94;;;19.30;69.57
60479;BME280;46321;48.398;11.754;2023-08-01T10:37:23;95512.13;;;19.12;71.63
60479;BME280;46321;48.398;11.754;2023-08-01T10:39:58;95514.03;;;18.89;73.40
60479;BME280;46321;48.398;11.754;2023-08-01T10:42:24;95505.38;;;18.82;74.09
60479;BME280;46321;48.398;11.754;2023-08-01T10:44:50;95493.50;;;19.00;73.72
60479;BME280;46321;48.398;11.754;2023-08-01T10:47:15;95481.88;;;18.89;73.85
60479;BME280;46321;48.398;11.754;2023-08-01T10:49:49;95473.94;;;18.99;73.37
60479;BME280;46321;48.398;11.754;2023-08-01T10:52:15;95451.53;;;18.83;72.78
60479;BME280;46321;48.398;11.754;2023-08-01T10:54:41;95436.16;;;18.73;73.75
60479;BME280;46321;48.398;11.754;2023-08-01T10:57:07;95430.00;;;18.45;74.45
60479;BME280;46321;48.398;11.754;2023-08-01T10:59:32;95431.41;;;18.53;74.57
60479;BME280;46321;48.398;11.754;2023-08-01T11:01:59;95451.72;;;18.49;75.26
60479;BME280;46321;48.398;11.754;2023-08-01T11:04:25;95469.22;;;18.57;75.67
60479;BME280;46321;48.398;11.754;2023-08-01T11:06:51;95466.72;;;18.72;75.02
60479;BME280;46321;48.398;11.754;2023-08-01T11:09:24;95484.09;;;18.70;75.59
60479;BME280;46321;48.398;11.754;2023-08-01T11:11:50;95485.97;;;18.69;75.79
60479;BME280;46321;48.398;11.754;2023-08-01T11:14:16;95486.50;;;18.71;75.74
60479;BME280;46321;48.398;11.754;2023-08-01T11:16:42;95482.66;;;18.62;77.00
60479;BME280;46321;48.398;11.754;2023-08-01T11:19:17;95482.94;;;18.88;76.93
60479;BME280;46321;48.398;11.754;2023-08-01T11:21:42;95475.78;;;18.99;75.98
60479;BME280;46321;48.398;11.754;2023-08-01T11:24:08;95475.03;;;19.04;75.19
60479;BME280;46321;48.398;11.754;2023-08-01T11:26:33;95477.13;;;18.96;74.81
60479;BME280;46321;48.398;11.754;2023-08-01T11:29:01;95479.28;;;18.99;74.78
60479;BME280;46321;48.398;11.754;2023-08-01T11:31:28;95473.66;;;19.01;74.46
60479;BME280;46321;48.398;11.754;2023-08-01T11:33:56;95482.47;;;18.96;74.85
60479;BME280;46321;48.398;11.754;2023-08-01T11:36:22;95476.00;;;18.92;75.09
60479;BME280;46321;48.398;11.754;2023-08-01T11:38:47;95479.09;;;19.06;74.60
60479;BME280;46321;48.398;11.754;2023-08-01T11:41:13;95480.56;;;19.19;75.51
60479;BME280;46321;48.398;11.754;2023-08-01T11:43:41;95477.19;;;19.34;73.34
60479;BME280;46321;48.398;11.754;2023-08-01T11:46:07;95469.47;;;19.43;72.86
60479;BME280;46321;48.398;11.754;2023-08-01T11:48:32;95471.31;;;19.38;72.65
60479;BME280;46321;48.398;11.754;2023-08-01T11:50:57;95469.97;;;19.35;72.90
60479;BME280;46321;48.398;11.754;2023-08-01T11:53:23;95467.06;;;19.14;73.02
60479;BME280;46321;48.398;11.754;2023-08-01T11:55:49;95469.56;;;19.21;73.04
60479;BME280;46321;48.398;11.754;2023-08-01T11:58:14;95477.50;;;19.10;73.51
60479;BME280;46321;48.398;11.754;2023-08-01T12:00:40;95460.59;;;19.10;72.76
60479;BME280;46321;48.398;11.754;2023-08-01T12:03:06;95463.56;;;19.14;72.48
60479;BME280;46321;48.398;11.754;2023-08-01T12:05:32;95485.91;;;18.92;71.90
60479;BME280;46321;48.398;11.754;2023-08-01T12:08:07;95477.25;;;18.84;71.95
60479;BME280;46321;48.398;11.754;2023-08-01T12:10:42;95473.25;;;18.87;71.60
60479;BME280;46321;48.398;11.754;2023-08-01T12:13:18;95492.56;;;18.84;71.92
60479;BME280;46321;48.398;11.754;2023-08-01T12:15:44;95500.66;;;18.67;71.92
60479;BME280;46321;48.398;11.754;2023-08-01T12:18:09;95497.22;;;18.71;71.74
60479;BME280;46321;48.398;11.754;2023-08-01T12:20:34;95492.97;;;18.75;71.56
60479;BME280;46321;48.398;11.754;2023-08-01T12:22:59;95495.19;;;18.79;71.76
60479;BME280;46321;48.398;11.754;2023-08-01T12:25:24;95494.25;;;18.68;72.38
60479;BME280;46321;48.398;11.754;2023-08-01T12:27:50;95504.66;;;18.64;72.07
60479;BME280;46321;48.398;11.754;2023-08-01T12:30:15;95508.88;;;18.54;72.96
60479;BME280;46321;48.398;11.754;2023-08-01T12:32:40;95502.25;;;18.40;74.49
60479;BME280;46321;48.398;11.754;2023-08-01T12:35:05;95502.59;;;18.44;74.27
60479;BME280;46321;48.398;11.754;2023-08-01T12:37:31;95497.63;;;18.35;76.08
60479;BME280;46321;48.398;11.754;2023-08-01T12:39:56;95499.28;;;18.36;75.48
60479;BME280;46321;48.398;11.754;2023-08-01T12:42:21;95510.16;;;18.52;75.04